createdAt,value
2019-06-08T00:00:16.657Z,15.69
2019-06-08T00:02:50.009Z,15.51
2019-06-08T00:05:23.256Z,15.51
2019-06-08T00:08:06.375Z,15.61
2019-06-08T00:10:39.852Z,15.43
2019-06-08T00:13:15.165Z,15.38
2019-06-08T00:15:49.135Z,15.34
2019-06-08T00:18:23.592Z,15.35
2019-06-08T00:20:57.563Z,15.37
2019-06-08T00:23:31.390Z,15.27
2019-06-08T00:26:04.664Z,15.31
2019-06-08T00:28:37.990Z,15.24
2019-06-08T00:31:11.577Z,15.17
2019-06-08T00:33:45.347Z,15.13
2019-06-08T00:36:18.795Z,15.18
2019-06-08T00:38:52.551Z,15.22
2019-06-08T00:41:26.511Z,15.25
2019-06-08T00:44:13.637Z,15.34
2019-06-08T00:46:46.876Z,15.11
2019-06-08T00:49:31.056Z,15.32
2019-06-08T00:52:04.518Z,15.16
2019-06-08T00:54:38.019Z,15.12
2019-06-08T00:57:21.804Z,15.26
2019-06-08T01:00:10.317Z,15.17
2019-06-08T01:02:50.770Z,15.13
2019-06-08T01:05:33.706Z,15.10
2019-06-08T01:08:07.099Z,14.95
2019-06-08T01:10:40.835Z,14.94
2019-06-08T01:13:14.395Z,15.02
2019-06-08T01:15:48.354Z,15.02
2019-06-08T01:18:22.931Z,15.02
2019-06-08T01:20:57.175Z,15.02
2019-06-08T01:23:32.009Z,14.95
2019-06-08T01:26:06.018Z,14.99
2019-06-08T01:28:39.346Z,14.91
2019-06-08T01:31:14.436Z,14.89
2019-06-08T01:33:48.744Z,14.82
2019-06-08T01:36:37.258Z,14.93
2019-06-08T01:39:11.200Z,14.84
2019-06-08T01:41:46.695Z,14.85
2019-06-08T01:44:21.461Z,14.80
2019-06-08T01:47:04.577Z,14.82
2019-06-08T01:49:38.443Z,14.71
2019-06-08T01:52:11.627Z,14.72
2019-06-08T01:54:44.861Z,14.76
2019-06-08T01:57:18.936Z,14.70
2019-06-08T01:59:52.911Z,14.70
2019-06-08T02:02:27.864Z,14.62
2019-06-08T02:05:01.523Z,14.60
2019-06-08T02:07:35.046Z,14.63
2019-06-08T02:10:08.880Z,14.62
2019-06-08T02:12:42.402Z,14.58
2019-06-08T02:15:16.550Z,14.55
2019-06-08T02:18:02.590Z,14.61
2019-06-08T02:20:35.967Z,14.48
2019-06-08T02:23:25.004Z,14.52
2019-06-08T02:25:58.921Z,14.36
2019-06-08T02:28:32.124Z,14.35
2019-06-08T02:31:05.842Z,14.31
2019-06-08T02:33:40.509Z,14.27
2019-06-08T02:36:14.443Z,14.29
2019-06-08T02:38:47.786Z,14.27
2019-06-08T02:41:21.443Z,14.31
2019-06-08T02:43:55.142Z,14.36
2019-06-08T02:46:29.051Z,14.40
2019-06-08T02:49:13.817Z,14.46
2019-06-08T02:51:47.178Z,14.31
2019-06-08T02:54:32.435Z,14.43
2019-06-08T02:57:06.629Z,14.28
2019-06-08T02:59:40.829Z,14.29
2019-06-08T03:02:31.522Z,14.44
2019-06-08T03:05:05.950Z,14.31
2019-06-08T03:07:42.900Z,14.30
2019-06-08T03:10:26.711Z,14.36
2019-06-08T03:13:11.838Z,14.36
2019-06-08T03:15:45.711Z,14.25
2019-06-08T03:18:31.451Z,14.36
2019-06-08T03:21:14.470Z,14.39
2019-06-08T03:23:48.756Z,14.26
2019-06-08T03:26:22.100Z,14.27
2019-06-08T03:29:05.151Z,14.27
2019-06-08T03:31:47.782Z,14.10
2019-06-08T03:34:26.240Z,14.18
2019-06-08T03:37:09.812Z,14.15
2019-06-08T03:39:53.033Z,14.16
2019-06-08T03:42:26.674Z,14.06
2019-06-08T03:45:00.208Z,14.05
2019-06-08T03:47:34.612Z,13.96
2019-06-08T03:50:18.110Z,14.05
2019-06-08T03:53:02.621Z,14.09
2019-06-08T03:55:37.801Z,13.93
2019-06-08T03:58:12.147Z,13.87
2019-06-08T04:00:47.118Z,13.87
2019-06-08T04:03:20.884Z,13.90
2019-06-08T04:05:54.010Z,13.90
2019-06-08T04:08:27.638Z,13.87
2019-06-08T04:11:01.072Z,13.83
2019-06-08T04:13:35.095Z,13.81
2019-06-08T04:16:09.071Z,13.79
2019-06-08T04:18:52.256Z,13.86
2019-06-08T04:21:26.306Z,13.75
2019-06-08T04:24:00.021Z,13.79
2019-06-08T04:26:45.018Z,14.19
2019-06-08T04:29:18.932Z,14.21
2019-06-08T04:32:02.951Z,14.43
2019-06-08T04:34:47.469Z,14.61
2019-06-08T04:37:31.886Z,14.65
2019-06-08T04:40:15.798Z,14.69
2019-06-08T04:42:59.466Z,14.69
2019-06-08T04:45:45.856Z,14.68
2019-06-08T04:48:19.860Z,14.54
2019-06-08T04:51:03.036Z,14.67
2019-06-08T04:53:38.459Z,14.60
2019-06-08T04:56:12.853Z,14.57
2019-06-08T04:58:56.375Z,14.63
2019-06-08T05:01:40.900Z,14.64
2019-06-08T05:04:14.683Z,14.51
2019-06-08T05:06:49.450Z,14.52
2019-06-08T05:09:23.139Z,14.46
2019-06-08T05:11:56.624Z,14.50
2019-06-08T05:14:30.945Z,14.53
2019-06-08T05:17:04.620Z,14.53
2019-06-08T05:19:50.316Z,14.64
2019-06-08T05:22:33.615Z,14.58
2019-06-08T05:25:07.236Z,14.53
2019-06-08T05:27:52.580Z,14.58
2019-06-08T05:30:28.059Z,14.49
2019-06-08T05:33:01.342Z,14.50
2019-06-08T05:35:35.055Z,14.49
2019-06-08T05:38:18.986Z,14.65
2019-06-08T05:40:53.935Z,14.60
2019-06-08T05:43:27.151Z,14.57
2019-06-08T05:46:01.052Z,14.63
2019-06-08T05:48:34.645Z,14.63
2019-06-08T05:51:08.887Z,14.57
2019-06-08T05:53:52.635Z,14.70
2019-06-08T05:56:35.611Z,14.71
2019-06-08T05:59:10.025Z,14.57
2019-06-08T06:01:53.466Z,14.63
2019-06-08T06:04:37.046Z,14.65
2019-06-08T06:07:10.382Z,14.50
2019-06-08T06:09:45.123Z,14.48
2019-06-08T06:12:18.788Z,14.52
2019-06-08T06:14:52.423Z,14.61
2019-06-08T06:17:26.043Z,14.67
2019-06-08T06:19:59.540Z,14.76
2019-06-08T06:22:33.403Z,14.84
2019-06-08T06:25:06.900Z,14.94
2019-06-08T06:27:41.379Z,15.00
2019-06-08T06:30:24.953Z,15.24
2019-06-08T06:33:08.877Z,15.26
2019-06-08T06:35:52.360Z,15.38
2019-06-08T06:38:25.717Z,15.51
2019-06-08T06:40:59.854Z,15.75
2019-06-08T06:43:50.393Z,15.94
2019-06-08T06:46:24.270Z,15.77
2019-06-08T06:48:58.249Z,15.82
2019-06-08T06:51:42.347Z,15.90
2019-06-08T06:54:25.335Z,15.97
2019-06-08T06:57:00.048Z,15.97
2019-06-08T06:59:33.637Z,16.10
2019-06-08T07:02:07.220Z,16.28
2019-06-08T07:04:40.618Z,16.28
2019-06-08T07:07:14.132Z,16.34
2019-06-08T07:09:48.414Z,16.33
2019-06-08T07:12:22.288Z,16.33
2019-06-08T07:14:55.632Z,16.44
2019-06-08T07:17:29.584Z,16.33
2019-06-08T07:20:03.311Z,16.26
2019-06-08T07:22:48.060Z,16.50
2019-06-08T07:25:22.105Z,16.29
2019-06-08T07:27:55.778Z,16.25
2019-06-08T07:30:29.992Z,16.25
2019-06-08T07:33:03.852Z,16.39
2019-06-08T07:35:40.969Z,16.56
2019-06-08T07:38:14.639Z,16.56
2019-06-08T07:40:48.850Z,16.53
2019-06-08T07:43:23.324Z,16.73
2019-06-08T07:45:58.453Z,16.72
2019-06-08T07:48:32.048Z,16.80
2019-06-08T07:51:05.542Z,16.91
2019-06-08T07:53:39.293Z,16.94
2019-06-08T07:56:13.304Z,16.92
2019-06-08T07:58:49.516Z,16.99
2019-06-08T08:01:35.271Z,16.94
2019-06-08T08:04:13.347Z,16.98
2019-06-08T08:06:48.271Z,16.90
2019-06-08T08:09:22.070Z,17.11
2019-06-08T08:11:55.429Z,17.22
2019-06-08T08:14:28.889Z,17.14
2019-06-08T08:17:02.506Z,17.20
2019-06-08T08:19:36.661Z,17.01
2019-06-08T08:22:21.941Z,17.13
2019-06-08T08:25:04.129Z,17.17
2019-06-08T08:27:47.884Z,17.13
2019-06-08T08:30:21.372Z,16.70
2019-06-08T08:33:07.570Z,16.64
2019-06-08T08:35:52.130Z,16.56
2019-06-08T08:38:40.990Z,16.44
2019-06-08T08:41:13.950Z,16.44
2019-06-08T08:44:00.827Z,16.58
2019-06-08T08:46:43.164Z,16.57
2019-06-08T08:49:18.218Z,16.29
2019-06-08T08:51:52.210Z,16.29
2019-06-08T08:54:37.698Z,16.44
2019-06-08T08:57:10.638Z,16.33
2019-06-08T08:59:43.887Z,16.46
2019-06-08T09:02:21.266Z,16.49
2019-06-08T09:05:03.954Z,16.62
2019-06-08T09:07:38.558Z,16.50
2019-06-08T09:10:12.721Z,16.49
2019-06-08T09:13:01.667Z,16.70
2019-06-08T09:15:33.944Z,16.70
2019-06-08T09:18:18.760Z,16.75
2019-06-08T09:20:53.868Z,16.55
2019-06-08T09:23:28.124Z,16.53
2019-06-08T09:26:13.315Z,16.81
2019-06-08T09:29:03.076Z,16.90
2019-06-08T09:31:35.429Z,16.90
2019-06-08T09:34:24.999Z,17.15
2019-06-08T09:37:08.897Z,16.92
2019-06-08T09:39:53.939Z,17.09
2019-06-08T09:42:37.910Z,17.10
2019-06-08T09:45:21.327Z,16.69
2019-06-08T09:47:55.505Z,16.41
2019-06-08T09:50:29.804Z,16.45
2019-06-08T09:53:19.999Z,16.44
2019-06-08T09:55:41.294Z,16.48
2019-06-08T09:58:13.885Z,16.46
2019-06-08T10:00:48.585Z,16.35
2019-06-08T10:03:22.450Z,16.40
2019-06-08T10:05:58.535Z,16.38
2019-06-08T10:08:31.218Z,16.33
2019-06-08T10:11:06.228Z,16.35
2019-06-08T10:13:43.410Z,16.32
2019-06-08T10:16:30.680Z,16.44
2019-06-08T10:19:07.085Z,16.30
2019-06-08T10:21:49.341Z,16.38
2019-06-08T10:24:32.991Z,16.39
2019-06-08T10:27:25.221Z,16.48
2019-06-08T10:30:10.762Z,16.54
2019-06-08T10:32:43.782Z,16.47
2019-06-08T10:35:20.609Z,16.52
2019-06-08T10:37:55.128Z,16.52
2019-06-08T10:40:28.590Z,16.45
2019-06-08T10:43:03.442Z,16.37
2019-06-08T10:45:51.181Z,16.48
2019-06-08T10:48:37.756Z,16.50
2019-06-08T10:51:25.971Z,16.63
2019-06-08T10:54:11.153Z,16.62
2019-06-08T10:56:44.315Z,16.53
2019-06-08T10:59:18.565Z,16.49
2019-06-08T11:01:52.300Z,16.56
2019-06-08T11:04:43.759Z,16.66
2019-06-08T11:07:27.999Z,16.78
2019-06-08T11:10:03.654Z,16.66
2019-06-08T11:12:37.741Z,16.76
2019-06-08T11:15:21.198Z,16.97
2019-06-08T11:17:59.934Z,16.77
2019-06-08T11:20:30.643Z,16.74
2019-06-08T11:23:18.739Z,16.92
2019-06-08T11:25:52.346Z,16.86
2019-06-08T11:28:38.182Z,17.07
2019-06-08T11:31:21.576Z,17.15
2019-06-08T11:33:58.495Z,16.93
2019-06-08T11:36:32.046Z,17.05
2019-06-08T11:39:18.562Z,16.98
2019-06-08T11:41:51.302Z,16.97
2019-06-08T11:44:24.662Z,16.94
2019-06-08T11:47:12.303Z,17.09
2019-06-08T11:49:42.646Z,16.94
2019-06-08T11:52:18.458Z,16.91
2019-06-08T11:54:52.117Z,16.97
2019-06-08T11:57:40.415Z,17.17
2019-06-08T12:00:27.535Z,17.19
2019-06-08T12:03:06.318Z,17.35
2019-06-08T12:05:40.026Z,17.12
2019-06-08T12:08:13.296Z,16.99
2019-06-08T12:10:49.129Z,17.03
2019-06-08T12:13:21.862Z,17.05
2019-06-08T12:15:55.752Z,16.99
2019-06-08T12:18:29.726Z,16.92
2019-06-08T12:21:03.767Z,16.98
2019-06-08T12:23:53.240Z,17.39
2019-06-08T12:26:26.450Z,17.49
2019-06-08T12:29:01.318Z,17.90
2019-06-08T12:31:37.710Z,18.41
2019-06-08T12:34:21.165Z,18.49
2019-06-08T12:37:05.337Z,19.09
2019-06-08T12:39:39.885Z,19.19
2019-06-08T12:42:18.449Z,18.96
2019-06-08T12:44:48.415Z,19.29
2019-06-08T12:47:26.894Z,19.16
2019-06-08T12:49:58.529Z,18.84
2019-06-08T12:52:32.636Z,18.84
2019-06-08T12:55:11.807Z,19.17
2019-06-08T12:57:42.377Z,19.21
2019-06-08T13:00:19.563Z,19.14
2019-06-08T13:02:51.297Z,19.15
2019-06-08T13:05:24.777Z,18.90
2019-06-08T13:07:59.012Z,19.22
2019-06-08T13:10:32.537Z,19.42
2019-06-08T13:13:08.041Z,19.16
2019-06-08T13:15:41.262Z,18.98
2019-06-08T13:18:15.215Z,18.72
2019-06-08T13:21:15.272Z,18.65
2019-06-08T13:23:34.650Z,18.30
2019-06-08T13:26:08.908Z,18.24
2019-06-08T13:28:42.675Z,18.19
2019-06-08T13:31:18.530Z,18.25
2019-06-08T13:34:01.962Z,18.27
2019-06-08T13:36:48.426Z,18.23
2019-06-08T13:39:22.915Z,18.15
2019-06-08T13:41:56.954Z,18.10
2019-06-08T13:44:30.971Z,17.99
2019-06-08T13:47:04.941Z,17.90
2019-06-08T13:49:48.901Z,17.99
2019-06-08T13:52:38.402Z,17.99
2019-06-08T13:55:40.414Z,18.00
2019-06-08T13:57:58.095Z,17.85
2019-06-08T14:00:38.111Z,17.87
2019-06-08T14:03:21.721Z,18.11
2019-06-08T14:06:07.985Z,18.42
2019-06-08T14:08:42.146Z,18.53
2019-06-08T14:11:25.838Z,19.33
2019-06-08T14:14:01.380Z,19.40
2019-06-08T14:16:35.537Z,19.51
2019-06-08T14:19:09.221Z,19.50
2019-06-08T14:21:52.863Z,19.27
2019-06-08T14:24:32.075Z,19.12
2019-06-08T14:27:12.526Z,19.51
2019-06-08T14:29:58.198Z,20.12
2019-06-08T14:32:31.035Z,20.53
2019-06-08T14:35:04.634Z,20.31
2019-06-08T14:37:38.447Z,20.28
2019-06-08T14:40:23.403Z,20.04
2019-06-08T14:42:58.071Z,19.64
2019-06-08T14:45:31.565Z,19.57
2019-06-08T14:48:05.978Z,19.58
2019-06-08T14:50:40.811Z,19.96
2019-06-08T14:53:15.925Z,20.43
2019-06-08T14:56:02.207Z,20.08
2019-06-08T14:58:29.121Z,20.22
2019-06-08T15:01:01.969Z,20.28
2019-06-08T15:03:48.240Z,20.06
2019-06-08T15:06:21.535Z,19.68
2019-06-08T15:08:55.207Z,19.41
2019-06-08T15:11:33.232Z,19.31
2019-06-08T15:14:13.527Z,19.38
2019-06-08T15:16:59.016Z,19.15
2019-06-08T15:19:48.898Z,19.06
2019-06-08T15:22:32.383Z,18.95
2019-06-08T15:25:08.256Z,18.81
2019-06-08T15:27:42.154Z,18.75
2019-06-08T15:30:17.868Z,18.80
2019-06-08T15:32:51.539Z,19.06
2019-06-08T15:35:25.389Z,19.26
2019-06-08T15:38:08.974Z,19.20
2019-06-08T15:40:53.026Z,19.22
2019-06-08T15:43:40.253Z,19.17
2019-06-08T15:46:13.734Z,19.00
2019-06-08T15:48:57.178Z,19.18
2019-06-08T15:51:33.874Z,18.91
2019-06-08T15:54:07.994Z,18.86
2019-06-08T15:56:48.658Z,18.79
2019-06-08T15:59:31.138Z,18.80
2019-06-08T16:02:02.317Z,18.57
2019-06-08T16:04:36.504Z,18.49
2019-06-08T16:07:12.993Z,18.42
2019-06-08T16:09:46.181Z,18.39
2019-06-08T16:12:19.346Z,18.34
2019-06-08T16:15:05.201Z,18.49
2019-06-08T16:17:59.772Z,18.56
2019-06-08T16:20:33.675Z,18.62
2019-06-08T16:23:17.524Z,19.15
2019-06-08T16:26:05.291Z,19.49
2019-06-08T16:28:39.487Z,19.79
2019-06-08T16:31:13.254Z,19.56
2019-06-08T16:33:47.404Z,19.49
2019-06-08T16:36:21.027Z,19.34
2019-06-08T16:38:58.275Z,19.29
2019-06-08T16:41:41.871Z,19.42
2019-06-08T16:44:25.391Z,19.39
2019-06-08T16:46:59.426Z,19.20
2019-06-08T16:49:33.530Z,19.16
2019-06-08T16:52:07.091Z,19.07
2019-06-08T16:54:51.339Z,19.09
2019-06-08T16:57:25.214Z,18.93
2019-06-08T17:00:29.238Z,18.93
2019-06-08T17:02:37.032Z,19.39
2019-06-08T17:05:12.003Z,20.03
2019-06-08T17:07:45.560Z,20.60
2019-06-08T17:10:20.359Z,20.85
2019-06-08T17:12:54.131Z,20.17
2019-06-08T17:15:27.759Z,19.88
2019-06-08T17:18:01.866Z,19.68
2019-06-08T17:20:36.577Z,19.58
2019-06-08T17:23:21.305Z,19.41
2019-06-08T17:26:08.894Z,19.26
2019-06-08T17:28:42.778Z,19.01
2019-06-08T17:31:16.749Z,18.93
2019-06-08T17:33:50.279Z,18.89
2019-06-08T17:36:24.321Z,18.85
2019-06-08T17:39:07.850Z,18.95
2019-06-08T17:41:51.385Z,18.94
2019-06-08T17:44:24.609Z,18.76
2019-06-08T17:46:58.612Z,18.73
2019-06-08T17:49:32.547Z,18.67
2019-06-08T17:52:16.645Z,18.78
2019-06-08T17:54:50.819Z,18.62
2019-06-08T17:57:24.300Z,18.61
2019-06-08T17:59:57.923Z,18.57
2019-06-08T18:02:31.919Z,18.55
2019-06-08T18:05:07.034Z,18.51
2019-06-08T18:07:43.827Z,18.47
2019-06-08T18:10:27.744Z,18.58
2019-06-08T18:13:02.374Z,18.44
2019-06-08T18:15:38.621Z,18.41
2019-06-08T18:18:12.693Z,18.38
2019-06-08T18:20:45.335Z,18.33
2019-06-08T18:23:17.873Z,18.02
2019-06-08T18:26:01.504Z,17.67
2019-06-08T18:28:55.005Z,17.13
2019-06-08T18:31:48.170Z,17.11
2019-06-08T18:34:40.241Z,17.13
2019-06-08T18:37:31.051Z,17.16
2019-06-08T18:40:21.540Z,17.01
2019-06-08T18:42:57.849Z,16.94
2019-06-08T18:45:35.858Z,16.94
2019-06-08T18:48:10.166Z,16.99
2019-06-08T18:50:48.547Z,16.96
2019-06-08T18:53:22.178Z,16.94
2019-06-08T18:56:08.248Z,16.99
2019-06-08T18:58:53.679Z,16.92
2019-06-08T19:01:49.868Z,16.92
2019-06-08T19:04:30.899Z,16.78
2019-06-08T19:07:07.887Z,16.81
2019-06-08T19:09:54.246Z,16.77
2019-06-08T19:12:28.288Z,16.77
2019-06-08T19:15:02.343Z,16.82
2019-06-08T19:17:45.824Z,16.79
2019-06-08T19:20:13.123Z,16.77
2019-06-08T19:22:54.340Z,16.68
2019-06-08T19:25:27.522Z,16.45
2019-06-08T19:28:17.541Z,16.51
2019-06-08T19:31:00.666Z,16.44
2019-06-08T19:33:35.438Z,16.27
2019-06-08T19:36:20.250Z,16.30
2019-06-08T19:38:57.592Z,16.30
2019-06-08T19:41:31.499Z,16.30
2019-06-08T19:44:07.542Z,16.29
2019-06-08T19:46:42.364Z,16.30
2019-06-08T19:49:17.487Z,16.22
2019-06-08T19:51:53.992Z,16.22
2019-06-08T19:54:27.437Z,16.20
2019-06-08T19:57:03.863Z,16.20
2019-06-08T19:59:49.569Z,16.32
2019-06-08T20:02:24.387Z,16.17
2019-06-08T20:05:10.222Z,16.23
2019-06-08T20:07:47.405Z,15.97
2019-06-08T20:10:20.845Z,15.92
2019-06-08T20:12:57.599Z,15.85
2019-06-08T20:15:47.325Z,15.91
2019-06-08T20:18:29.345Z,15.87
2019-06-08T20:21:03.378Z,15.66
2019-06-08T20:23:41.561Z,15.69
2019-06-08T20:26:28.743Z,15.77
2019-06-08T20:29:12.401Z,15.57
2019-06-08T20:31:51.446Z,15.69
2019-06-08T20:34:28.490Z,15.53
2019-06-08T20:37:02.182Z,15.52
2019-06-08T20:39:38.166Z,15.52
2019-06-08T20:42:12.130Z,15.46
2019-06-08T20:44:58.202Z,15.59
2019-06-08T20:47:31.428Z,15.47
2019-06-08T20:50:17.486Z,15.59
2019-06-08T20:53:02.521Z,15.57
2019-06-08T20:55:40.518Z,15.42
2019-06-08T20:58:11.767Z,15.43
2019-06-08T21:00:48.088Z,15.42
2019-06-08T21:03:27.833Z,15.34
2019-06-08T21:06:00.357Z,15.30
2019-06-08T21:08:39.984Z,15.29
2019-06-08T21:11:13.183Z,15.29
2019-06-08T21:13:57.475Z,15.39
2019-06-08T21:16:32.195Z,15.24
2019-06-08T21:19:22.346Z,15.33
2019-06-08T21:21:59.314Z,15.17
2019-06-08T21:24:33.193Z,15.16
2019-06-08T21:27:08.174Z,15.11
2019-06-08T21:29:49.161Z,15.07
2019-06-08T21:32:21.540Z,15.04
2019-06-08T21:34:55.280Z,15.00
2019-06-08T21:37:29.606Z,14.98
2019-06-08T21:40:04.332Z,14.91
2019-06-08T21:42:39.077Z,14.87
2019-06-08T21:45:22.204Z,14.95
2019-06-08T21:47:59.013Z,14.86
2019-06-08T21:50:43.539Z,14.92
2019-06-08T21:53:18.222Z,14.77
2019-06-08T21:56:02.006Z,14.85
2019-06-08T21:58:33.980Z,14.69
2019-06-08T22:01:19.487Z,14.72
2019-06-08T22:03:53.679Z,14.54
2019-06-08T22:06:27.473Z,14.47
2019-06-08T22:09:01.609Z,14.46
2019-06-08T22:11:38.017Z,14.46
2019-06-08T22:14:11.556Z,14.48
2019-06-08T22:16:47.375Z,14.47
2019-06-08T22:19:20.020Z,14.45
2019-06-08T22:21:56.086Z,14.46
2019-06-08T22:24:39.156Z,14.54
2019-06-08T22:27:12.970Z,14.36
2019-06-08T22:29:48.343Z,14.35
2019-06-08T22:32:21.426Z,14.35
2019-06-08T22:34:54.914Z,14.30
2019-06-08T22:37:29.208Z,14.26
2019-06-08T22:40:03.671Z,14.23
2019-06-08T22:42:37.552Z,14.11
2019-06-08T22:45:11.819Z,14.11
2019-06-08T22:47:58.607Z,14.21
2019-06-08T22:50:30.838Z,14.06
2019-06-08T22:53:21.347Z,14.15
2019-06-08T22:56:08.084Z,14.10
2019-06-08T22:58:42.363Z,13.93
2019-06-08T23:01:27.838Z,14.01
2019-06-08T23:04:03.894Z,13.89
2019-06-08T23:06:47.846Z,13.94
2019-06-08T23:09:22.188Z,13.80
2019-06-08T23:11:59.595Z,13.78
2019-06-08T23:14:31.413Z,13.77
2019-06-08T23:17:14.751Z,13.88
2019-06-08T23:19:48.718Z,13.75
2019-06-08T23:22:32.655Z,13.84
2019-06-08T23:25:18.339Z,13.81
2019-06-08T23:28:03.340Z,13.76
2019-06-08T23:30:47.761Z,13.69
2019-06-08T23:33:21.230Z,13.57
2019-06-08T23:36:30.530Z,13.56
2019-06-08T23:38:39.437Z,13.65
2019-06-08T23:41:12.961Z,13.52
2019-06-08T23:43:48.056Z,13.50
2019-06-08T23:46:38.117Z,13.60
2019-06-08T23:49:22.284Z,13.56
2019-06-08T23:51:59.470Z,13.40
2019-06-08T23:54:32.252Z,13.43
2019-06-08T23:57:15.288Z,13.52
2019-06-08T23:59:48.533Z,13.33
